createdAt,value
2018-11-12T00:01:39.513Z,2.37
2018-11-12T00:04:10.032Z,1.40
2018-11-12T00:06:41.596Z,2.30
2018-11-12T00:09:12.249Z,3.07
2018-11-12T00:11:43.064Z,2.87
2018-11-12T00:14:13.645Z,3.13
2018-11-12T00:16:44.550Z,2.83
2018-11-12T00:19:15.272Z,1.83
2018-11-12T00:21:46.088Z,1.40
2018-11-12T00:24:16.708Z,1.23
2018-11-12T00:26:47.317Z,2.97
2018-11-12T00:29:17.972Z,1.70
2018-11-12T00:31:48.792Z,4.53
2018-11-12T00:34:19.382Z,2.40
2018-11-12T00:36:50.264Z,2.30
2018-11-12T00:39:20.997Z,2.17
2018-11-12T00:41:51.535Z,1.50
2018-11-12T00:44:22.367Z,3.43
2018-11-12T00:46:52.997Z,1.37
2018-11-12T00:49:23.906Z,0.90
2018-11-12T00:51:54.592Z,2.03
2018-11-12T00:54:25.266Z,1.57
2018-11-12T00:56:55.954Z,2.73
2018-11-12T00:59:26.878Z,1.23
2018-11-12T01:01:57.529Z,1.10
2018-11-12T01:04:28.330Z,1.77
2018-11-12T01:06:58.927Z,1.80
2018-11-12T01:09:29.620Z,2.20
2018-11-12T01:12:00.365Z,2.10
2018-11-12T01:14:30.935Z,1.57
2018-11-12T01:17:01.680Z,2.33
2018-11-12T01:19:32.333Z,2.30
2018-11-12T01:22:03.096Z,1.40
2018-11-12T01:24:33.614Z,1.70
2018-11-12T01:27:04.183Z,1.27
2018-11-12T01:29:34.913Z,2.03
2018-11-12T01:32:05.823Z,2.27
2018-11-12T01:34:36.662Z,1.77
2018-11-12T01:37:07.420Z,0.70
2018-11-12T01:39:38.166Z,2.93
2018-11-12T01:42:08.904Z,1.53
2018-11-12T01:44:39.578Z,1.50
2018-11-12T01:47:10.169Z,1.13
2018-11-12T01:49:40.971Z,0.97
2018-11-12T01:52:11.730Z,2.00
2018-11-12T01:54:42.382Z,1.23
2018-11-12T01:57:13.109Z,1.90
2018-11-12T01:59:43.942Z,1.00
2018-11-12T02:02:14.474Z,0.83
2018-11-12T02:04:45.191Z,1.20
2018-11-12T02:07:15.880Z,0.93
2018-11-12T02:09:46.695Z,2.50
2018-11-12T02:12:17.519Z,0.63
2018-11-12T02:14:48.139Z,1.77
2018-11-12T02:17:18.976Z,1.17
2018-11-12T02:19:49.604Z,2.47
2018-11-12T02:22:20.238Z,3.67
2018-11-12T02:24:50.855Z,1.87
2018-11-12T02:27:21.451Z,4.10
2018-11-12T02:29:52.387Z,1.70
2018-11-12T02:32:22.992Z,1.43
2018-11-12T02:34:53.792Z,1.60
2018-11-12T02:37:24.490Z,2.33
2018-11-12T02:39:55.045Z,2.67
2018-11-12T02:42:25.758Z,1.23
2018-11-12T02:44:56.594Z,1.93
2018-11-12T02:47:27.229Z,0.97
2018-11-12T02:49:57.949Z,1.13
2018-11-12T02:52:28.924Z,1.93
2018-11-12T02:54:59.649Z,1.43
2018-11-12T02:57:30.376Z,1.50
2018-11-12T03:00:00.928Z,1.13
2018-11-12T03:02:31.462Z,4.63
2018-11-12T03:05:02.269Z,1.00
2018-11-12T03:07:33.179Z,1.90
2018-11-12T03:10:03.567Z,0.70
2018-11-12T03:12:34.349Z,1.73
2018-11-12T03:15:04.856Z,1.17
2018-11-12T03:17:35.624Z,1.80
2018-11-12T03:20:07.123Z,1.00
2018-11-12T03:22:37.930Z,1.47
2018-11-12T03:25:10.101Z,2.00
2018-11-12T03:27:41.753Z,0.80
2018-11-12T03:30:17.028Z,1.27
2018-11-12T03:32:48.564Z,1.33
2018-11-12T03:35:19.245Z,1.87
2018-11-12T03:37:50.571Z,1.03
2018-11-12T03:40:23.312Z,1.10
2018-11-12T03:42:54.086Z,1.17
2018-11-12T03:45:25.698Z,1.27
2018-11-12T03:47:56.236Z,2.43
2018-11-12T03:50:26.908Z,0.73
2018-11-12T03:52:57.575Z,1.80
2018-11-12T03:55:28.171Z,0.93
2018-11-12T03:57:58.847Z,0.70
2018-11-12T04:00:33.493Z,1.70
2018-11-12T04:03:04.372Z,2.17
2018-11-12T04:05:35.080Z,2.10
2018-11-12T04:08:06.249Z,1.60
2018-11-12T04:10:37.038Z,1.13
2018-11-12T04:15:54.589Z,0.93
2018-11-12T04:18:25.221Z,0.80
2018-11-12T04:20:55.913Z,0.80
2018-11-12T04:23:26.540Z,0.40
2018-11-12T04:25:57.255Z,0.67
2018-11-12T04:28:27.873Z,0.83
2018-11-12T04:30:58.540Z,0.87
2018-11-12T04:33:29.345Z,2.93
2018-11-12T04:35:59.963Z,1.37
2018-11-12T04:38:30.856Z,0.97
2018-11-12T04:41:01.519Z,1.80
2018-11-12T04:43:32.113Z,1.67
2018-11-12T04:46:02.720Z,1.23
2018-11-12T04:48:33.523Z,1.23
2018-11-12T04:51:04.223Z,0.77
2018-11-12T04:53:34.918Z,3.03
2018-11-12T04:56:05.556Z,1.10
2018-11-12T04:58:36.309Z,3.30
2018-11-12T05:01:07.379Z,1.33
2018-11-12T05:03:38.063Z,2.13
2018-11-12T05:06:08.844Z,0.83
2018-11-12T05:08:39.550Z,1.30
2018-11-12T05:11:10.225Z,1.10
2018-11-12T05:13:40.968Z,1.50
2018-11-12T05:16:11.578Z,3.20
2018-11-12T05:18:42.443Z,1.97
2018-11-12T05:21:13.227Z,2.60
2018-11-12T05:23:43.813Z,1.10
2018-11-12T05:26:15.337Z,4.10
2018-11-12T05:28:46.012Z,1.27
2018-11-12T05:31:16.645Z,1.10
2018-11-12T05:33:47.414Z,1.00
2018-11-12T05:36:18.244Z,1.37
2018-11-12T05:38:48.948Z,1.27
2018-11-12T05:41:19.680Z,1.53
2018-11-12T05:43:50.373Z,2.17
2018-11-12T05:46:21.056Z,1.20
2018-11-12T05:48:51.851Z,2.13
2018-11-12T05:51:22.768Z,1.63
2018-11-12T05:53:53.353Z,1.10
2018-11-12T05:56:24.119Z,1.53
2018-11-12T05:58:54.844Z,3.27
2018-11-12T06:01:25.633Z,2.10
2018-11-12T06:03:56.370Z,1.97
2018-11-12T06:06:27.044Z,3.97
2018-11-12T06:08:57.689Z,1.67
2018-11-12T06:11:28.478Z,3.63
2018-11-12T06:13:59.050Z,2.73
2018-11-12T06:16:29.814Z,2.83
2018-11-12T06:19:00.533Z,1.50
2018-11-12T06:21:31.160Z,1.77
2018-11-12T06:24:01.908Z,1.53
2018-11-12T06:26:32.532Z,1.43
2018-11-12T06:29:03.075Z,1.33
2018-11-12T06:31:33.726Z,1.97
2018-11-12T06:34:04.442Z,2.17
2018-11-12T06:36:35.129Z,3.53
2018-11-12T06:39:08.077Z,3.03
2018-11-12T06:41:38.759Z,1.93
2018-11-12T06:44:10.238Z,1.77
2018-11-12T06:46:41.183Z,1.93
2018-11-12T06:49:11.766Z,2.07
2018-11-12T06:51:42.378Z,3.03
2018-11-12T06:54:13.062Z,1.93
2018-11-12T06:56:43.703Z,2.10
2018-11-12T06:59:14.289Z,1.50
2018-11-12T07:01:44.978Z,3.03
2018-11-12T07:04:15.823Z,3.83
2018-11-12T07:06:46.590Z,2.67
2018-11-12T07:09:17.088Z,5.30
2018-11-12T07:11:47.984Z,4.93
2018-11-12T07:14:18.573Z,2.13
2018-11-12T07:16:49.462Z,4.07
2018-11-12T07:19:20.050Z,3.20
2018-11-12T07:21:50.692Z,2.03
2018-11-12T07:24:21.265Z,2.30
2018-11-12T07:26:51.930Z,2.97
2018-11-12T07:29:22.744Z,3.17
2018-11-12T07:31:53.437Z,4.53
2018-11-12T07:34:24.104Z,2.00
2018-11-12T07:36:54.830Z,2.63
2018-11-12T07:39:25.427Z,2.43
2018-11-12T07:41:56.315Z,2.87
2018-11-12T07:44:27.188Z,2.53
2018-11-12T07:46:57.808Z,2.70
2018-11-12T07:49:28.493Z,4.67
2018-11-12T07:51:59.244Z,3.53
2018-11-12T07:54:29.940Z,3.50
2018-11-12T07:57:00.634Z,2.70
2018-11-12T07:59:33.351Z,5.77
2018-11-12T08:02:03.978Z,3.23
2018-11-12T08:04:34.640Z,4.50
2018-11-12T08:07:05.639Z,3.93
2018-11-12T08:09:36.236Z,4.07
2018-11-12T08:12:07.068Z,4.63
2018-11-12T08:14:37.801Z,2.33
2018-11-12T08:17:08.517Z,2.70
2018-11-12T08:19:39.227Z,6.03
2018-11-12T08:22:10.108Z,2.60
2018-11-12T08:24:41.053Z,2.57
2018-11-12T08:27:11.805Z,2.67
2018-11-12T08:29:42.571Z,2.87
2018-11-12T08:32:13.143Z,2.80
2018-11-12T08:34:44.191Z,5.27
2018-11-12T08:37:14.746Z,4.33
2018-11-12T08:39:45.483Z,3.27
2018-11-12T08:42:15.997Z,4.03
2018-11-12T08:44:46.531Z,3.17
2018-11-12T08:47:17.308Z,4.87
2018-11-12T08:49:48.225Z,4.20
2018-11-12T08:52:18.815Z,5.73
2018-11-12T08:54:49.542Z,4.87
2018-11-12T08:57:20.288Z,3.47
2018-11-12T08:59:51.185Z,5.67
2018-11-12T09:02:21.868Z,3.47
2018-11-12T09:04:52.426Z,4.30
2018-11-12T09:07:23.210Z,3.90
2018-11-12T09:09:53.901Z,3.97
2018-11-12T09:12:24.644Z,4.43
2018-11-12T09:14:55.357Z,3.90
2018-11-12T09:17:26.127Z,7.53
2018-11-12T09:19:56.947Z,5.97
2018-11-12T09:22:27.772Z,4.90
2018-11-12T09:24:58.495Z,5.10
2018-11-12T09:27:29.149Z,6.43
2018-11-12T09:29:59.901Z,3.47
2018-11-12T09:32:30.633Z,5.40
2018-11-12T09:35:01.412Z,4.23
2018-11-12T09:37:32.254Z,3.40
2018-11-12T09:40:04.687Z,3.53
2018-11-12T09:42:35.372Z,3.33
2018-11-12T09:45:06.998Z,3.43
2018-11-12T09:47:37.604Z,6.07
2018-11-12T09:50:11.167Z,3.37
2018-11-12T09:52:42.822Z,2.60
2018-11-12T09:55:14.396Z,3.50
2018-11-12T09:57:49.062Z,3.33
2018-11-12T10:00:20.553Z,2.80
2018-11-12T10:02:52.272Z,4.80
2018-11-12T10:05:23.894Z,6.13
2018-11-12T10:07:57.322Z,3.93
2018-11-12T10:11:01.345Z,3.33
2018-11-12T10:13:35.127Z,4.30
2018-11-12T10:16:06.449Z,6.03
2018-11-12T10:18:34.195Z,5.53
2018-11-12T10:21:04.711Z,3.97
2018-11-12T10:23:35.414Z,6.27
2018-11-12T10:26:06.415Z,5.07
2018-11-12T10:28:37.157Z,4.73
2018-11-12T10:31:07.913Z,4.93
2018-11-12T10:33:38.716Z,4.93
2018-11-12T10:36:09.417Z,4.47
2018-11-12T10:38:40.151Z,4.80
2018-11-12T10:41:10.948Z,6.47
2018-11-12T10:43:41.653Z,5.43
2018-11-12T10:46:12.333Z,6.00
2018-11-12T10:48:43.041Z,6.87
2018-11-12T10:51:13.918Z,6.77
2018-11-12T10:53:50.044Z,6.93
2018-11-12T10:56:15.484Z,7.67
2018-11-12T10:58:46.388Z,7.93
2018-11-12T11:01:34.623Z,8.83
2018-11-12T11:04:24.942Z,8.50
2018-11-12T11:06:55.636Z,9.90
2018-11-12T11:09:26.222Z,10.90
2018-11-12T11:11:56.752Z,8.43
2018-11-12T11:14:27.540Z,8.60
2018-11-12T11:16:58.241Z,8.23
2018-11-12T11:19:28.806Z,8.27
2018-11-12T11:21:59.568Z,7.80
2018-11-12T11:24:30.426Z,7.60
2018-11-12T11:27:01.573Z,8.17
2018-11-12T11:29:32.311Z,7.00
2018-11-12T11:32:03.248Z,9.17
2018-11-12T11:34:33.889Z,9.37
2018-11-12T11:37:04.732Z,9.23
2018-11-12T11:39:35.492Z,11.07
2018-11-12T11:42:06.579Z,10.53
2018-11-12T11:44:37.317Z,11.60
2018-11-12T11:47:08.096Z,10.97
2018-11-12T11:49:38.735Z,10.63
2018-11-12T11:52:09.541Z,10.07
2018-11-12T11:54:40.349Z,10.47
2018-11-12T11:57:11.178Z,12.50
2018-11-12T11:59:41.925Z,10.33
2018-11-12T12:02:12.588Z,13.00
2018-11-12T12:04:43.433Z,9.37
2018-11-12T12:07:14.183Z,9.90
2018-11-12T12:09:44.876Z,9.60
2018-11-12T12:12:15.826Z,11.27
2018-11-12T12:14:46.542Z,10.43
2018-11-12T12:17:17.283Z,9.40
2018-11-12T12:19:47.939Z,9.57
2018-11-12T12:22:18.669Z,9.50
2018-11-12T12:24:49.676Z,10.77
2018-11-12T12:27:20.171Z,11.10
2018-11-12T12:29:50.996Z,10.90
2018-11-12T12:32:21.858Z,12.07
2018-11-12T12:34:52.755Z,14.33
2018-11-12T12:37:23.519Z,12.73
2018-11-12T12:39:54.334Z,11.47
2018-11-12T12:42:25.232Z,12.90
2018-11-12T12:44:55.976Z,13.27
2018-11-12T12:47:26.750Z,12.33
2018-11-12T12:49:57.626Z,12.57
2018-11-12T12:52:29.136Z,11.07
2018-11-12T12:55:00.130Z,11.67
2018-11-12T13:00:06.158Z,12.10
2018-11-12T13:02:37.225Z,10.00
2018-11-12T13:05:08.106Z,11.33
2018-11-12T13:07:40.674Z,9.10
2018-11-12T13:10:19.267Z,11.80
2018-11-12T13:12:50.054Z,9.60
2018-11-12T13:15:21.239Z,8.97
2018-11-12T13:17:52.592Z,8.47
2018-11-12T13:20:24.603Z,10.90
2018-11-12T13:22:55.423Z,7.73
2018-11-12T13:25:26.004Z,11.07
2018-11-12T13:27:57.024Z,8.83
2018-11-12T13:30:27.814Z,10.40
2018-11-12T13:32:58.477Z,9.40
2018-11-12T13:35:29.276Z,9.70
2018-11-12T13:38:00.045Z,9.60
2018-11-12T13:40:30.764Z,10.03
2018-11-12T13:43:01.584Z,7.77
2018-11-12T13:45:32.297Z,9.00
2018-11-12T13:48:03.085Z,9.30
2018-11-12T13:50:33.766Z,9.23
2018-11-12T13:53:04.836Z,9.80
2018-11-12T13:55:35.504Z,12.63
2018-11-12T13:58:06.281Z,12.00
2018-11-12T14:00:36.962Z,12.30
2018-11-12T14:03:07.738Z,13.47
2018-11-12T14:05:38.649Z,12.73
2018-11-12T14:08:09.390Z,15.07
2018-11-12T14:10:40.185Z,18.27
2018-11-12T14:13:10.789Z,15.80
2018-11-12T14:15:41.713Z,18.53
2018-11-12T14:18:12.482Z,20.70
2018-11-12T14:20:43.258Z,21.50
2018-11-12T14:23:13.880Z,22.40
2018-11-12T14:25:44.559Z,20.83
2018-11-12T14:28:16.760Z,23.43
2018-11-12T14:30:47.244Z,24.10
2018-11-12T14:33:18.111Z,23.23
2018-11-12T14:35:48.850Z,23.77
2018-11-12T14:38:19.537Z,21.87
2018-11-12T14:40:50.414Z,26.93
2018-11-12T14:43:21.080Z,25.23
2018-11-12T14:45:51.924Z,22.87
2018-11-12T14:48:22.634Z,25.77
2018-11-12T14:50:53.390Z,24.30
2018-11-12T14:53:24.118Z,21.53
2018-11-12T14:55:55.007Z,23.00
2018-11-12T14:58:25.821Z,22.77
2018-11-12T15:00:56.464Z,20.20
2018-11-12T15:03:27.163Z,21.03
2018-11-12T15:05:57.855Z,24.50
2018-11-12T15:08:28.693Z,23.43
2018-11-12T15:10:59.456Z,27.87
2018-11-12T15:13:29.993Z,25.57
2018-11-12T15:16:00.742Z,21.13
2018-11-12T15:18:31.461Z,26.17
2018-11-12T15:21:02.181Z,22.40
2018-11-12T15:23:32.980Z,23.57
2018-11-12T15:26:03.727Z,24.23
2018-11-12T15:28:35.891Z,22.77
2018-11-12T15:31:06.576Z,34.37
2018-11-12T15:33:37.320Z,21.57
2018-11-12T15:36:08.157Z,27.80
2018-11-12T15:38:39.170Z,23.27
2018-11-12T15:41:09.926Z,22.27
2018-11-12T15:43:40.676Z,20.30
2018-11-12T15:46:11.485Z,19.27
2018-11-12T15:48:42.278Z,20.50
2018-11-12T15:51:13.078Z,21.47
2018-11-12T15:53:44.007Z,18.57
2018-11-12T15:56:14.728Z,17.67
2018-11-12T15:58:45.390Z,18.13
2018-11-12T16:01:16.156Z,15.90
2018-11-12T16:03:47.015Z,17.13
2018-11-12T16:06:17.723Z,16.83
2018-11-12T16:08:48.272Z,14.23
2018-11-12T16:11:19.116Z,17.07
2018-11-12T16:13:52.619Z,19.37
2018-11-12T16:16:23.388Z,14.00
2018-11-12T16:18:54.179Z,13.77
2018-11-12T16:21:24.812Z,14.93
2018-11-12T16:23:55.620Z,17.20
2018-11-12T16:26:26.474Z,13.70
2018-11-12T16:28:57.816Z,18.13
2018-11-12T16:31:28.732Z,17.20
2018-11-12T16:33:59.480Z,17.97
2018-11-12T16:36:30.361Z,16.03
2018-11-12T16:39:01.174Z,14.17
2018-11-12T16:41:32.159Z,13.87
2018-11-12T16:44:02.854Z,13.73
2018-11-12T16:46:33.678Z,12.87
2018-11-12T16:49:04.307Z,12.30
2018-11-12T16:51:35.139Z,13.27
2018-11-12T16:54:05.817Z,15.03
2018-11-12T16:56:36.482Z,13.43
2018-11-12T16:59:08.760Z,12.87
2018-11-12T17:01:39.491Z,11.17
2018-11-12T17:04:10.352Z,13.77
2018-11-12T17:06:41.097Z,17.30
2018-11-12T17:09:14.871Z,15.50
2018-11-12T17:11:45.753Z,12.70
2018-11-12T17:14:16.466Z,12.47
2018-11-12T17:16:47.228Z,13.07
2018-11-12T17:19:18.029Z,15.40
2018-11-12T17:21:48.892Z,13.77
2018-11-12T17:24:20.747Z,15.67
2018-11-12T17:26:51.535Z,14.57
2018-11-12T17:29:22.156Z,16.90
2018-11-12T17:31:52.899Z,15.53
2018-11-12T17:34:23.754Z,21.00
2018-11-12T17:36:54.566Z,18.53
2018-11-12T17:39:25.261Z,17.63
2018-11-12T17:41:56.176Z,17.10
2018-11-12T17:44:26.912Z,23.43
2018-11-12T17:46:57.643Z,26.77
2018-11-12T17:49:28.352Z,21.20
2018-11-12T17:51:59.229Z,21.07
2018-11-12T17:54:30.034Z,19.00
2018-11-12T17:57:00.793Z,19.00
2018-11-12T17:59:31.735Z,21.53
2018-11-12T18:02:02.554Z,22.27
2018-11-12T18:04:33.265Z,26.03
2018-11-12T18:07:04.180Z,20.63
2018-11-12T18:09:34.918Z,21.47
2018-11-12T18:12:05.933Z,19.70
2018-11-12T18:14:36.631Z,22.50
2018-11-12T18:17:07.501Z,22.03
2018-11-12T18:19:38.227Z,23.37
2018-11-12T18:22:11.293Z,22.27
2018-11-12T18:24:41.957Z,24.00
2018-11-12T18:27:12.835Z,26.50
2018-11-12T18:29:43.521Z,25.20
2018-11-12T18:32:14.345Z,23.97
2018-11-12T18:34:45.157Z,26.37
2018-11-12T18:37:15.927Z,27.30
2018-11-12T18:39:46.756Z,24.00
2018-11-12T18:42:17.520Z,25.27
2018-11-12T18:44:48.258Z,25.47
2018-11-12T18:47:19.082Z,24.77
2018-11-12T18:49:49.962Z,25.77
2018-11-12T18:52:20.703Z,22.00
2018-11-12T18:54:51.530Z,24.00
2018-11-12T18:57:22.371Z,25.10
2018-11-12T18:59:53.047Z,24.03
2018-11-12T19:02:23.884Z,19.97
2018-11-12T19:04:54.442Z,19.37
2018-11-12T19:07:25.287Z,15.47
2018-11-12T19:09:55.976Z,11.97
2018-11-12T19:12:26.808Z,11.87
2018-11-12T19:14:57.589Z,10.73
2018-11-12T19:17:28.282Z,7.60
2018-11-12T19:19:58.941Z,9.93
2018-11-12T19:22:29.573Z,9.57
2018-11-12T19:25:00.316Z,6.77
2018-11-12T19:27:31.532Z,9.20
2018-11-12T19:30:02.316Z,7.33
2018-11-12T19:32:33.115Z,7.33
2018-11-12T19:35:03.971Z,7.67
2018-11-12T19:37:34.642Z,6.50
2018-11-12T19:40:05.771Z,5.27
2018-11-12T19:42:36.588Z,10.63
2018-11-12T19:45:08.720Z,7.17
2018-11-12T19:47:39.693Z,6.93
2018-11-12T19:50:15.267Z,7.37
2018-11-12T19:52:47.017Z,7.03
2018-11-12T19:55:17.864Z,7.80
2018-11-12T19:57:49.126Z,7.10
2018-11-12T20:00:21.480Z,6.93
2018-11-12T20:02:53.380Z,7.57
2018-11-12T20:05:24.062Z,6.60
2018-11-12T20:07:54.923Z,8.97
2018-11-12T20:10:25.855Z,12.67
2018-11-12T20:12:56.495Z,10.07
2018-11-12T20:15:27.657Z,9.20
2018-11-12T20:17:58.378Z,14.43
2018-11-12T20:20:32.909Z,16.90
2018-11-12T20:23:03.652Z,15.63
2018-11-12T20:25:34.546Z,15.50
2018-11-12T20:28:05.478Z,17.23
2018-11-12T20:30:40.266Z,17.50
2018-11-12T20:33:11.075Z,17.53
2018-11-12T20:35:41.990Z,15.90
2018-11-12T20:38:12.862Z,22.87
2018-11-12T20:40:43.699Z,18.90
2018-11-12T20:43:14.532Z,22.80
2018-11-12T20:45:45.372Z,26.07
2018-11-12T20:48:16.377Z,23.73
2018-11-12T20:50:46.930Z,26.33
2018-11-12T20:53:17.807Z,32.77
2018-11-12T20:55:48.601Z,29.77
2018-11-12T20:58:19.463Z,27.67
2018-11-12T21:00:50.612Z,30.57
2018-11-12T21:03:21.327Z,29.50
2018-11-12T21:05:52.220Z,28.57
2018-11-12T21:08:23.098Z,28.50
2018-11-12T21:10:53.804Z,29.17
2018-11-12T21:13:24.500Z,30.00
2018-11-12T21:15:55.218Z,26.83
2018-11-12T21:18:26.124Z,24.40
2018-11-12T21:20:57.028Z,30.20
2018-11-12T21:23:27.813Z,26.23
2018-11-12T21:25:58.516Z,23.13
2018-11-12T21:28:29.261Z,28.77
2018-11-12T21:31:00.133Z,24.87
2018-11-12T21:33:30.906Z,27.77
2018-11-12T21:36:01.691Z,24.63
2018-11-12T21:38:32.453Z,23.93
2018-11-12T21:41:03.051Z,23.03
2018-11-12T21:43:33.962Z,22.97
2018-11-12T21:46:04.584Z,23.13
2018-11-12T21:48:35.400Z,24.20
2018-11-12T21:51:06.163Z,31.60
2018-11-12T21:53:37.038Z,24.73
2018-11-12T21:56:07.847Z,26.13
2018-11-12T21:58:38.760Z,26.90
2018-11-12T22:01:09.566Z,28.80
2018-11-12T22:03:40.153Z,29.07
2018-11-12T22:06:10.821Z,29.17
2018-11-12T22:08:41.576Z,31.57
2018-11-12T22:11:12.811Z,34.77
2018-11-12T22:13:43.570Z,34.30
2018-11-12T22:16:14.370Z,34.00
2018-11-12T22:18:45.047Z,38.83
2018-11-12T22:21:15.604Z,34.73
2018-11-12T22:23:46.406Z,35.57
2018-11-12T22:26:17.267Z,32.10
2018-11-12T22:28:47.931Z,34.70
2018-11-12T22:31:18.772Z,33.83
2018-11-12T22:33:49.691Z,33.27
2018-11-12T22:36:20.646Z,35.63
2018-11-12T22:38:51.397Z,29.10
2018-11-12T22:41:22.206Z,33.60
2018-11-12T22:43:52.952Z,31.77
2018-11-12T22:46:23.686Z,28.37
2018-11-12T22:48:54.335Z,33.50
2018-11-12T22:51:25.016Z,31.10
2018-11-12T22:53:55.753Z,38.33
2018-11-12T22:56:26.252Z,32.17
2018-11-12T22:58:57.019Z,38.17
2018-11-12T23:01:27.735Z,35.10
2018-11-12T23:03:58.344Z,36.90
2018-11-12T23:06:28.964Z,37.20
2018-11-12T23:08:59.802Z,33.13
2018-11-12T23:11:30.656Z,36.27
2018-11-12T23:14:01.392Z,34.67
2018-11-12T23:16:32.072Z,38.07
2018-11-12T23:19:02.823Z,34.70
2018-11-12T23:21:33.535Z,36.73
2018-11-12T23:24:04.233Z,34.63
2018-11-12T23:26:34.984Z,40.77
2018-11-12T23:29:05.721Z,37.67
2018-11-12T23:31:36.377Z,38.53
2018-11-12T23:34:07.194Z,35.73
2018-11-12T23:36:37.907Z,37.30
2018-11-12T23:39:10.277Z,39.30
2018-11-12T23:41:40.994Z,37.07
2018-11-12T23:44:11.942Z,32.63
2018-11-12T23:46:42.647Z,36.53
2018-11-12T23:49:13.285Z,34.70
2018-11-12T23:51:44.079Z,34.27
2018-11-12T23:54:14.645Z,35.83
2018-11-12T23:56:45.305Z,32.73
2018-11-12T23:59:16.130Z,30.00
